sensor_id;sensor_type;location;lat;lon;timestamp;P1;durP1;ratioP1;P2;durP2;ratioP2
11247;SDS011;5681;53.316;13.950;2023-02-13T00:01:03;10.87;;;8.37;;
11247;SDS011;5681;53.316;13.950;2023-02-13T00:03:30;11.43;;;8.37;;
11247;SDS011;5681;53.316;13.950;2023-02-13T00:05:56;11.53;;;8.80;;
11247;SDS011;5681;53.316;13.950;2023-02-13T00:08:22;11.60;;;9.23;;
11247;SDS011;5681;53.316;13.950;2023-02-13T00:10:49;12.97;;;8.83;;
11247;SDS011;5681;53.316;13.950;2023-02-13T00:13:16;14.35;;;9.55;;
11247;SDS011;5681;53.316;13.950;2023-02-13T00:15:43;13.82;;;9.55;;
11247;SDS011;5681;53.316;13.950;2023-02-13T00:18:09;14.30;;;9.33;;
11247;SDS011;5681;53.316;13.950;2023-02-13T00:20:36;11.32;;;9.02;;
11247;SDS011;5681;53.316;13.950;2023-02-13T00:23:02;11.87;;;9.30;;
11247;SDS011;5681;53.316;13.950;2023-02-13T00:25:30;12.63;;;8.68;;
11247;SDS011;5681;53.316;13.950;2023-02-13T00:27:57;11.43;;;9.17;;
11247;SDS011;5681;53.316;13.950;2023-02-13T00:30:24;10.90;;;8.97;;
11247;SDS011;5681;53.316;13.950;2023-02-13T00:32:51;10.20;;;8.67;;
11247;SDS011;5681;53.316;13.950;2023-02-13T00:35:17;12.90;;;8.97;;
11247;SDS011;5681;53.316;13.950;2023-02-13T00:37:46;11.13;;;8.97;;
11247;SDS011;5681;53.316;13.950;2023-02-13T00:40:12;11.87;;;8.37;;
11247;SDS011;5681;53.316;13.950;2023-02-13T00:42:39;9.20;;;8.13;;
11247;SDS011;5681;53.316;13.950;2023-02-13T00:45:05;10.43;;;7.80;;
11247;SDS011;5681;53.316;13.950;2023-02-13T00:47:34;9.53;;;7.03;;
11247;SDS011;5681;53.316;13.950;2023-02-13T00:50:00;8.97;;;7.27;;
11247;SDS011;5681;53.316;13.950;2023-02-13T00:52:26;11.63;;;7.60;;
11247;SDS011;5681;53.316;13.950;2023-02-13T00:54:52;8.63;;;6.60;;
11247;SDS011;5681;53.316;13.950;2023-02-13T00:57:19;8.57;;;6.50;;
11247;SDS011;5681;53.316;13.950;2023-02-13T00:59:45;8.25;;;6.72;;
11247;SDS011;5681;53.316;13.950;2023-02-13T01:02:12;7.10;;;6.20;;
11247;SDS011;5681;53.316;13.950;2023-02-13T01:04:39;7.37;;;6.33;;
11247;SDS011;5681;53.316;13.950;2023-02-13T01:07:06;6.73;;;5.73;;
11247;SDS011;5681;53.316;13.950;2023-02-13T01:09:32;6.77;;;6.07;;
11247;SDS011;5681;53.316;13.950;2023-02-13T01:11:59;8.83;;;6.00;;
11247;SDS011;5681;53.316;13.950;2023-02-13T01:14:28;7.83;;;5.47;;
11247;SDS011;5681;53.316;13.950;2023-02-13T01:16:55;6.43;;;5.40;;
11247;SDS011;5681;53.316;13.950;2023-02-13T01:19:21;5.80;;;5.00;;
11247;SDS011;5681;53.316;13.950;2023-02-13T01:21:49;7.37;;;5.00;;
11247;SDS011;5681;53.316;13.950;2023-02-13T01:24:15;6.67;;;5.23;;
11247;SDS011;5681;53.316;13.950;2023-02-13T01:26:42;5.23;;;4.57;;
11247;SDS011;5681;53.316;13.950;2023-02-13T01:29:10;7.13;;;5.30;;
11247;SDS011;5681;53.316;13.950;2023-02-13T01:31:37;7.00;;;5.10;;
11247;SDS011;5681;53.316;13.950;2023-02-13T01:34:03;6.37;;;5.30;;
11247;SDS011;5681;53.316;13.950;2023-02-13T01:36:29;6.50;;;4.73;;
11247;SDS011;5681;53.316;13.950;2023-02-13T01:38:57;5.37;;;4.50;;
11247;SDS011;5681;53.316;13.950;2023-02-13T01:41:24;6.40;;;5.13;;
11247;SDS011;5681;53.316;13.950;2023-02-13T01:43:52;5.33;;;4.63;;
11247;SDS011;5681;53.316;13.950;2023-02-13T01:46:21;6.20;;;5.00;;
11247;SDS011;5681;53.316;13.950;2023-02-13T01:48:48;7.10;;;5.07;;
11247;SDS011;5681;53.316;13.950;2023-02-13T01:51:17;5.87;;;5.27;;
11247;SDS011;5681;53.316;13.950;2023-02-13T01:53:45;5.67;;;4.63;;
11247;SDS011;5681;53.316;13.950;2023-02-13T01:56:16;7.33;;;4.90;;
11247;SDS011;5681;53.316;13.950;2023-02-13T01:58:45;6.20;;;4.57;;
11247;SDS011;5681;53.316;13.950;2023-02-13T02:01:13;5.40;;;4.40;;
11247;SDS011;5681;53.316;13.950;2023-02-13T02:03:42;5.80;;;4.50;;
11247;SDS011;5681;53.316;13.950;2023-02-13T02:06:11;7.97;;;3.90;;
11247;SDS011;5681;53.316;13.950;2023-02-13T02:08:40;4.57;;;4.03;;
11247;SDS011;5681;53.316;13.950;2023-02-13T02:11:08;6.43;;;4.57;;
11247;SDS011;5681;53.316;13.950;2023-02-13T02:13:40;4.23;;;3.83;;
11247;SDS011;5681;53.316;13.950;2023-02-13T02:16:06;4.90;;;4.20;;
11247;SDS011;5681;53.316;13.950;2023-02-13T02:18:32;5.60;;;4.20;;
11247;SDS011;5681;53.316;13.950;2023-02-13T02:21:14;5.87;;;4.43;;
11247;SDS011;5681;53.316;13.950;2023-02-13T02:24:25;6.70;;;4.30;;
11247;SDS011;5681;53.316;13.950;2023-02-13T02:27:15;4.63;;;3.97;;
11247;SDS011;5681;53.316;13.950;2023-02-13T02:30:01;7.37;;;4.93;;
11247;SDS011;5681;53.316;13.950;2023-02-13T02:35:30;8.50;;;4.20;;
11247;SDS011;5681;53.316;13.950;2023-02-13T02:40:48;5.20;;;3.90;;
11247;SDS011;5681;53.316;13.950;2023-02-13T02:43:23;6.50;;;4.10;;
11247;SDS011;5681;53.316;13.950;2023-02-13T02:45:58;5.20;;;3.80;;
11247;SDS011;5681;53.316;13.950;2023-02-13T02:48:32;4.30;;;3.70;;
11247;SDS011;5681;53.316;13.950;2023-02-13T02:51:18;4.73;;;3.47;;
11247;SDS011;5681;53.316;13.950;2023-02-13T02:53:47;3.77;;;3.30;;
11247;SDS011;5681;53.316;13.950;2023-02-13T02:56:19;4.07;;;3.30;;
11247;SDS011;5681;53.316;13.950;2023-02-13T02:58:49;6.50;;;3.00;;
11247;SDS011;5681;53.316;13.950;2023-02-13T03:01:36;5.93;;;3.50;;
11247;SDS011;5681;53.316;13.950;2023-02-13T03:04:31;3.57;;;2.90;;
11247;SDS011;5681;53.316;13.950;2023-02-13T03:07:16;6.17;;;3.23;;
11247;SDS011;5681;53.316;13.950;2023-02-13T03:09:44;4.63;;;2.70;;
11247;SDS011;5681;53.316;13.950;2023-02-13T03:12:41;2.87;;;2.67;;
11247;SDS011;5681;53.316;13.950;2023-02-13T03:15:27;4.00;;;3.07;;
11247;SDS011;5681;53.316;13.950;2023-02-13T03:17:54;3.27;;;2.80;;
11247;SDS011;5681;53.316;13.950;2023-02-13T03:20:41;3.13;;;2.70;;
11247;SDS011;5681;53.316;13.950;2023-02-13T03:23:32;4.33;;;3.10;;
11247;SDS011;5681;53.316;13.950;2023-02-13T03:29:07;3.90;;;2.90;;
11247;SDS011;5681;53.316;13.950;2023-02-13T03:31:57;3.20;;;2.90;;
11247;SDS011;5681;53.316;13.950;2023-02-13T03:34:28;3.90;;;3.03;;
11247;SDS011;5681;53.316;13.950;2023-02-13T03:37:18;4.47;;;3.27;;
11247;SDS011;5681;53.316;13.950;2023-02-13T03:40:11;5.67;;;3.40;;
11247;SDS011;5681;53.316;13.950;2023-02-13T03:42:39;4.47;;;2.90;;
11247;SDS011;5681;53.316;13.950;2023-02-13T03:45:07;3.67;;;3.10;;
11247;SDS011;5681;53.316;13.950;2023-02-13T03:47:55;3.33;;;2.90;;
11247;SDS011;5681;53.316;13.950;2023-02-13T03:50:23;3.80;;;2.80;;
11247;SDS011;5681;53.316;13.950;2023-02-13T03:52:51;4.73;;;3.23;;
11247;SDS011;5681;53.316;13.950;2023-02-13T03:55:19;4.77;;;2.97;;
11247;SDS011;5681;53.316;13.950;2023-02-13T03:58:07;3.70;;;2.90;;
11247;SDS011;5681;53.316;13.950;2023-02-13T04:00:55;4.07;;;3.20;;
11247;SDS011;5681;53.316;13.950;2023-02-13T04:03:24;4.10;;;2.90;;
11247;SDS011;5681;53.316;13.950;2023-02-13T04:05:53;7.50;;;3.40;;
11247;SDS011;5681;53.316;13.950;2023-02-13T04:08:23;4.80;;;2.80;;
11247;SDS011;5681;53.316;13.950;2023-02-13T04:10:49;3.77;;;3.27;;
11247;SDS011;5681;53.316;13.950;2023-02-13T04:13:19;4.23;;;3.30;;
11247;SDS011;5681;53.316;13.950;2023-02-13T04:15:50;4.07;;;3.00;;
11247;SDS011;5681;53.316;13.950;2023-02-13T04:18:20;5.73;;;3.17;;
11247;SDS011;5681;53.316;13.950;2023-02-13T04:20:47;4.43;;;3.37;;
11247;SDS011;5681;53.316;13.950;2023-02-13T04:23:14;5.07;;;2.43;;
11247;SDS011;5681;53.316;13.950;2023-02-13T04:25:43;4.70;;;2.93;;
11247;SDS011;5681;53.316;13.950;2023-02-13T04:28:11;4.30;;;3.00;;
11247;SDS011;5681;53.316;13.950;2023-02-13T04:30:38;4.20;;;3.10;;
11247;SDS011;5681;53.316;13.950;2023-02-13T04:33:04;4.00;;;3.07;;
11247;SDS011;5681;53.316;13.950;2023-02-13T04:35:30;4.77;;;2.90;;
11247;SDS011;5681;53.316;13.950;2023-02-13T04:37:57;4.73;;;3.20;;
11247;SDS011;5681;53.316;13.950;2023-02-13T04:40:23;4.97;;;3.10;;
11247;SDS011;5681;53.316;13.950;2023-02-13T04:42:51;4.63;;;3.33;;
11247;SDS011;5681;53.316;13.950;2023-02-13T04:45:17;6.90;;;3.17;;
11247;SDS011;5681;53.316;13.950;2023-02-13T04:47:48;5.23;;;3.27;;
11247;SDS011;5681;53.316;13.950;2023-02-13T04:50:15;5.60;;;3.97;;
11247;SDS011;5681;53.316;13.950;2023-02-13T04:52:42;6.80;;;3.80;;
11247;SDS011;5681;53.316;13.950;2023-02-13T04:55:08;3.80;;;3.40;;
11247;SDS011;5681;53.316;13.950;2023-02-13T04:57:34;4.37;;;3.50;;
11247;SDS011;5681;53.316;13.950;2023-02-13T05:00:02;3.83;;;3.10;;
11247;SDS011;5681;53.316;13.950;2023-02-13T05:02:30;6.27;;;3.60;;
11247;SDS011;5681;53.316;13.950;2023-02-13T05:04:57;4.07;;;3.30;;
11247;SDS011;5681;53.316;13.950;2023-02-13T05:07:23;4.47;;;3.20;;
11247;SDS011;5681;53.316;13.950;2023-02-13T05:09:49;4.00;;;3.50;;
11247;SDS011;5681;53.316;13.950;2023-02-13T05:12:16;4.83;;;3.23;;
11247;SDS011;5681;53.316;13.950;2023-02-13T05:14:42;7.87;;;4.10;;
11247;SDS011;5681;53.316;13.950;2023-02-13T05:17:10;5.20;;;4.20;;
11247;SDS011;5681;53.316;13.950;2023-02-13T05:19:36;5.83;;;4.20;;
11247;SDS011;5681;53.316;13.950;2023-02-13T05:22:02;6.73;;;4.17;;
11247;SDS011;5681;53.316;13.950;2023-02-13T05:24:47;5.30;;;4.40;;
11247;SDS011;5681;53.316;13.950;2023-02-13T05:27:13;5.90;;;4.40;;
11247;SDS011;5681;53.316;13.950;2023-02-13T05:29:41;6.83;;;4.50;;
11247;SDS011;5681;53.316;13.950;2023-02-13T05:32:07;6.17;;;4.47;;
11247;SDS011;5681;53.316;13.950;2023-02-13T05:34:35;5.43;;;4.20;;
11247;SDS011;5681;53.316;13.950;2023-02-13T05:37:01;8.10;;;4.27;;
11247;SDS011;5681;53.316;13.950;2023-02-13T05:39:28;7.60;;;4.43;;
11247;SDS011;5681;53.316;13.950;2023-02-13T05:41:54;5.07;;;4.00;;
11247;SDS011;5681;53.316;13.950;2023-02-13T05:44:21;7.03;;;4.17;;
11247;SDS011;5681;53.316;13.950;2023-02-13T05:46:47;5.50;;;3.90;;
11247;SDS011;5681;53.316;13.950;2023-02-13T05:49:14;4.10;;;3.70;;
11247;SDS011;5681;53.316;13.950;2023-02-13T05:51:42;6.00;;;3.80;;
11247;SDS011;5681;53.316;13.950;2023-02-13T05:54:10;5.20;;;3.73;;
11247;SDS011;5681;53.316;13.950;2023-02-13T05:56:36;5.77;;;4.53;;
11247;SDS011;5681;53.316;13.950;2023-02-13T05:59:03;6.53;;;4.83;;
11247;SDS011;5681;53.316;13.950;2023-02-13T06:01:32;6.37;;;4.73;;
11247;SDS011;5681;53.316;13.950;2023-02-13T06:03:59;8.70;;;5.40;;
11247;SDS011;5681;53.316;13.950;2023-02-13T06:06:25;7.50;;;5.60;;
11247;SDS011;5681;53.316;13.950;2023-02-13T06:08:53;8.27;;;6.20;;
11247;SDS011;5681;53.316;13.950;2023-02-13T06:11:19;8.20;;;6.67;;
11247;SDS011;5681;53.316;13.950;2023-02-13T06:13:45;9.03;;;5.97;;
11247;SDS011;5681;53.316;13.950;2023-02-13T06:16:12;7.80;;;5.33;;
11247;SDS011;5681;53.316;13.950;2023-02-13T06:18:38;6.47;;;5.40;;
11247;SDS011;5681;53.316;13.950;2023-02-13T06:21:05;6.60;;;5.70;;
11247;SDS011;5681;53.316;13.950;2023-02-13T06:23:32;7.27;;;5.43;;
11247;SDS011;5681;53.316;13.950;2023-02-13T06:26:01;7.87;;;5.47;;
11247;SDS011;5681;53.316;13.950;2023-02-13T06:28:29;7.90;;;5.30;;
11247;SDS011;5681;53.316;13.950;2023-02-13T06:30:55;8.80;;;7.03;;
11247;SDS011;5681;53.316;13.950;2023-02-13T06:33:21;6.83;;;6.10;;
11247;SDS011;5681;53.316;13.950;2023-02-13T06:35:48;7.73;;;6.00;;
11247;SDS011;5681;53.316;13.950;2023-02-13T06:38:14;9.00;;;7.07;;
11247;SDS011;5681;53.316;13.950;2023-02-13T06:40:43;8.70;;;7.07;;
11247;SDS011;5681;53.316;13.950;2023-02-13T06:43:10;8.47;;;7.07;;
11247;SDS011;5681;53.316;13.950;2023-02-13T06:45:37;9.57;;;6.60;;
11247;SDS011;5681;53.316;13.950;2023-02-13T06:48:03;8.00;;;7.10;;
11247;SDS011;5681;53.316;13.950;2023-02-13T06:50:29;12.50;;;7.07;;
11247;SDS011;5681;53.316;13.950;2023-02-13T06:52:56;9.30;;;7.37;;
11247;SDS011;5681;53.316;13.950;2023-02-13T06:55:22;9.60;;;6.47;;
11247;SDS011;5681;53.316;13.950;2023-02-13T06:57:49;8.37;;;7.07;;
11247;SDS011;5681;53.316;13.950;2023-02-13T07:00:17;9.23;;;7.03;;
11247;SDS011;5681;53.316;13.950;2023-02-13T07:02:44;10.53;;;6.40;;
11247;SDS011;5681;53.316;13.950;2023-02-13T07:05:11;7.87;;;6.77;;
11247;SDS011;5681;53.316;13.950;2023-02-13T07:07:39;7.83;;;6.43;;
11247;SDS011;5681;53.316;13.950;2023-02-13T07:10:07;11.13;;;7.07;;
11247;SDS011;5681;53.316;13.950;2023-02-13T07:12:34;9.27;;;7.27;;
11247;SDS011;5681;53.316;13.950;2023-02-13T07:15:01;9.83;;;6.80;;
11247;SDS011;5681;53.316;13.950;2023-02-13T07:17:29;9.07;;;7.00;;
11247;SDS011;5681;53.316;13.950;2023-02-13T07:19:56;8.20;;;6.67;;
11247;SDS011;5681;53.316;13.950;2023-02-13T07:22:22;8.20;;;6.83;;
11247;SDS011;5681;53.316;13.950;2023-02-13T07:24:49;7.90;;;6.47;;
11247;SDS011;5681;53.316;13.950;2023-02-13T07:27:15;11.87;;;8.80;;
11247;SDS011;5681;53.316;13.950;2023-02-13T07:29:41;7.97;;;7.17;;
11247;SDS011;5681;53.316;13.950;2023-02-13T07:32:08;9.13;;;7.77;;
11247;SDS011;5681;53.316;13.950;2023-02-13T07:34:35;8.47;;;7.13;;
11247;SDS011;5681;53.316;13.950;2023-02-13T07:37:02;10.17;;;8.30;;
11247;SDS011;5681;53.316;13.950;2023-02-13T07:39:28;9.87;;;7.77;;
11247;SDS011;5681;53.316;13.950;2023-02-13T07:41:55;10.53;;;8.57;;
11247;SDS011;5681;53.316;13.950;2023-02-13T07:44:22;12.03;;;8.60;;
11247;SDS011;5681;53.316;13.950;2023-02-13T07:46:48;16.47;;;10.63;;
11247;SDS011;5681;53.316;13.950;2023-02-13T07:49:14;10.50;;;8.70;;
11247;SDS011;5681;53.316;13.950;2023-02-13T07:51:42;8.00;;;7.20;;
11247;SDS011;5681;53.316;13.950;2023-02-13T07:54:08;11.33;;;8.17;;
11247;SDS011;5681;53.316;13.950;2023-02-13T07:56:34;13.57;;;8.83;;
11247;SDS011;5681;53.316;13.950;2023-02-13T07:59:01;13.47;;;9.57;;
11247;SDS011;5681;53.316;13.950;2023-02-13T08:01:27;9.60;;;7.43;;
11247;SDS011;5681;53.316;13.950;2023-02-13T08:03:54;10.40;;;7.30;;
11247;SDS011;5681;53.316;13.950;2023-02-13T08:06:20;8.87;;;7.03;;
11247;SDS011;5681;53.316;13.950;2023-02-13T08:08:48;9.30;;;6.77;;
11247;SDS011;5681;53.316;13.950;2023-02-13T08:11:35;8.87;;;7.10;;
11247;SDS011;5681;53.316;13.950;2023-02-13T08:14:18;11.37;;;7.60;;
11247;SDS011;5681;53.316;13.950;2023-02-13T08:16:45;12.60;;;7.90;;
11247;SDS011;5681;53.316;13.950;2023-02-13T08:19:12;9.03;;;7.20;;
11247;SDS011;5681;53.316;13.950;2023-02-13T08:21:38;10.77;;;7.00;;
11247;SDS011;5681;53.316;13.950;2023-02-13T08:24:06;7.73;;;6.90;;
11247;SDS011;5681;53.316;13.950;2023-02-13T08:26:32;8.93;;;6.87;;
11247;SDS011;5681;53.316;13.950;2023-02-13T08:28:59;9.17;;;7.27;;
11247;SDS011;5681;53.316;13.950;2023-02-13T08:31:25;10.57;;;7.10;;
11247;SDS011;5681;53.316;13.950;2023-02-13T08:33:52;10.20;;;6.43;;
11247;SDS011;5681;53.316;13.950;2023-02-13T08:36:18;9.20;;;7.27;;
11247;SDS011;5681;53.316;13.950;2023-02-13T08:38:45;7.53;;;6.73;;
11247;SDS011;5681;53.316;13.950;2023-02-13T08:41:13;7.50;;;6.53;;
11247;SDS011;5681;53.316;13.950;2023-02-13T08:43:39;11.57;;;7.07;;
11247;SDS011;5681;53.316;13.950;2023-02-13T08:46:06;11.23;;;7.70;;
11247;SDS011;5681;53.316;13.950;2023-02-13T08:48:32;8.97;;;6.77;;
11247;SDS011;5681;53.316;13.950;2023-02-13T08:50:59;9.00;;;7.37;;
11247;SDS011;5681;53.316;13.950;2023-02-13T08:53:25;10.30;;;7.37;;
11247;SDS011;5681;53.316;13.950;2023-02-13T08:55:52;12.13;;;7.37;;
11247;SDS011;5681;53.316;13.950;2023-02-13T08:58:20;12.57;;;8.20;;
11247;SDS011;5681;53.316;13.950;2023-02-13T09:00:46;9.50;;;6.60;;
11247;SDS011;5681;53.316;13.950;2023-02-13T09:03:13;12.40;;;8.00;;
11247;SDS011;5681;53.316;13.950;2023-02-13T09:05:39;17.10;;;11.23;;
11247;SDS011;5681;53.316;13.950;2023-02-13T09:08:06;17.77;;;10.00;;
11247;SDS011;5681;53.316;13.950;2023-02-13T09:10:35;10.73;;;8.60;;
11247;SDS011;5681;53.316;13.950;2023-02-13T09:13:02;8.73;;;7.30;;
11247;SDS011;5681;53.316;13.950;2023-02-13T09:15:30;12.93;;;9.00;;
11247;SDS011;5681;53.316;13.950;2023-02-13T09:17:56;12.77;;;8.93;;
11247;SDS011;5681;53.316;13.950;2023-02-13T09:20:23;10.20;;;7.40;;
11247;SDS011;5681;53.316;13.950;2023-02-13T09:22:49;9.63;;;6.63;;
11247;SDS011;5681;53.316;13.950;2023-02-13T09:25:15;10.43;;;6.90;;
11247;SDS011;5681;53.316;13.950;2023-02-13T09:27:44;7.80;;;6.50;;
11247;SDS011;5681;53.316;13.950;2023-02-13T09:30:10;7.73;;;6.90;;
11247;SDS011;5681;53.316;13.950;2023-02-13T09:32:43;8.00;;;6.87;;
11247;SDS011;5681;53.316;13.950;2023-02-13T09:35:09;10.13;;;7.37;;
11247;SDS011;5681;53.316;13.950;2023-02-13T09:37:38;10.07;;;7.17;;
11247;SDS011;5681;53.316;13.950;2023-02-13T09:40:05;8.70;;;6.90;;
11247;SDS011;5681;53.316;13.950;2023-02-13T09:42:35;8.77;;;6.57;;
11247;SDS011;5681;53.316;13.950;2023-02-13T09:45:03;8.47;;;7.00;;
11247;SDS011;5681;53.316;13.950;2023-02-13T09:47:30;8.50;;;6.77;;
11247;SDS011;5681;53.316;13.950;2023-02-13T09:49:59;8.23;;;6.93;;
11247;SDS011;5681;53.316;13.950;2023-02-13T09:52:33;8.27;;;6.83;;
11247;SDS011;5681;53.316;13.950;2023-02-13T09:55:01;10.20;;;8.20;;
11247;SDS011;5681;53.316;13.950;2023-02-13T09:57:30;8.30;;;6.63;;
11247;SDS011;5681;53.316;13.950;2023-02-13T10:00:03;9.07;;;6.67;;
11247;SDS011;5681;53.316;13.950;2023-02-13T10:02:42;8.97;;;7.07;;
11247;SDS011;5681;53.316;13.950;2023-02-13T10:05:19;8.47;;;7.13;;
11247;SDS011;5681;53.316;13.950;2023-02-13T10:07:56;8.10;;;7.27;;
11247;SDS011;5681;53.316;13.950;2023-02-13T10:10:26;9.00;;;7.23;;
11247;SDS011;5681;53.316;13.950;2023-02-13T10:12:56;9.67;;;7.43;;
11247;SDS011;5681;53.316;13.950;2023-02-13T10:15:30;9.63;;;7.60;;
11247;SDS011;5681;53.316;13.950;2023-02-13T10:18:01;9.57;;;7.93;;
11247;SDS011;5681;53.316;13.950;2023-02-13T10:20:31;9.10;;;7.47;;
11247;SDS011;5681;53.316;13.950;2023-02-13T10:23:02;8.43;;;7.30;;
11247;SDS011;5681;53.316;13.950;2023-02-13T10:25:39;9.27;;;8.13;;
11247;SDS011;5681;53.316;13.950;2023-02-13T10:28:10;9.43;;;8.13;;
11247;SDS011;5681;53.316;13.950;2023-02-13T10:30:39;10.13;;;7.90;;
11247;SDS011;5681;53.316;13.950;2023-02-13T10:33:12;10.03;;;8.23;;
11247;SDS011;5681;53.316;13.950;2023-02-13T10:35:49;9.97;;;8.13;;
11247;SDS011;5681;53.316;13.950;2023-02-13T10:38:19;9.70;;;8.70;;
11247;SDS011;5681;53.316;13.950;2023-02-13T10:40:50;10.20;;;8.50;;
11247;SDS011;5681;53.316;13.950;2023-02-13T10:43:24;9.23;;;8.23;;
11247;SDS011;5681;53.316;13.950;2023-02-13T10:45:55;10.13;;;8.70;;
11247;SDS011;5681;53.316;13.950;2023-02-13T10:48:35;8.93;;;8.03;;
11247;SDS011;5681;53.316;13.950;2023-02-13T10:51:10;9.37;;;8.37;;
11247;SDS011;5681;53.316;13.950;2023-02-13T10:53:42;10.03;;;8.63;;
11247;SDS011;5681;53.316;13.950;2023-02-13T10:56:19;9.63;;;8.53;;
11247;SDS011;5681;53.316;13.950;2023-02-13T10:58:53;8.90;;;8.00;;
11247;SDS011;5681;53.316;13.950;2023-02-13T11:01:30;15.43;;;8.57;;
11247;SDS011;5681;53.316;13.950;2023-02-13T11:04:00;10.50;;;7.90;;
11247;SDS011;5681;53.316;13.950;2023-02-13T11:06:31;8.40;;;7.50;;
11247;SDS011;5681;53.316;13.950;2023-02-13T11:08:59;13.27;;;8.10;;
11247;SDS011;5681;53.316;13.950;2023-02-13T11:11:29;9.27;;;8.10;;
11247;SDS011;5681;53.316;13.950;2023-02-13T11:14:11;9.43;;;8.40;;
11247;SDS011;5681;53.316;13.950;2023-02-13T11:16:39;8.80;;;7.70;;
11247;SDS011;5681;53.316;13.950;2023-02-13T11:19:13;9.80;;;7.43;;
11247;SDS011;5681;53.316;13.950;2023-02-13T11:21:43;8.27;;;6.80;;
11247;SDS011;5681;53.316;13.950;2023-02-13T11:24:16;8.10;;;6.80;;
11247;SDS011;5681;53.316;13.950;2023-02-13T11:26:43;8.60;;;6.37;;
11247;SDS011;5681;53.316;13.950;2023-02-13T11:29:15;7.43;;;6.73;;
11247;SDS011;5681;53.316;13.950;2023-02-13T11:31:42;8.70;;;7.20;;
11247;SDS011;5681;53.316;13.950;2023-02-13T11:34:23;10.02;;;7.93;;
11247;SDS011;5681;53.316;13.950;2023-02-13T11:36:52;8.60;;;7.70;;
11247;SDS011;5681;53.316;13.950;2023-02-13T11:39:21;10.73;;;8.10;;
11247;SDS011;5681;53.316;13.950;2023-02-13T11:41:48;10.63;;;7.55;;
11247;SDS011;5681;53.316;13.950;2023-02-13T11:44:19;9.55;;;8.10;;
11247;SDS011;5681;53.316;13.950;2023-02-13T11:46:49;9.45;;;7.80;;
11247;SDS011;5681;53.316;13.950;2023-02-13T11:49:18;9.45;;;7.53;;
11247;SDS011;5681;53.316;13.950;2023-02-13T11:51:46;8.52;;;7.43;;
11247;SDS011;5681;53.316;13.950;2023-02-13T11:54:22;12.95;;;7.97;;
11247;SDS011;5681;53.316;13.950;2023-02-13T11:56:51;8.25;;;7.07;;
11247;SDS011;5681;53.316;13.950;2023-02-13T11:59:21;8.63;;;7.03;;
11247;SDS011;5681;53.316;13.950;2023-02-13T12:01:49;9.47;;;7.63;;
11247;SDS011;5681;53.316;13.950;2023-02-13T12:04:27;8.95;;;8.00;;
11247;SDS011;5681;53.316;13.950;2023-02-13T12:06:57;8.88;;;7.10;;
11247;SDS011;5681;53.316;13.950;2023-02-13T12:09:27;11.43;;;7.15;;
11247;SDS011;5681;53.316;13.950;2023-02-13T12:11:54;8.73;;;6.78;;
11247;SDS011;5681;53.316;13.950;2023-02-13T12:14:23;10.55;;;7.30;;
11247;SDS011;5681;53.316;13.950;2023-02-13T12:16:52;9.63;;;7.10;;
11247;SDS011;5681;53.316;13.950;2023-02-13T12:19:21;10.37;;;7.60;;
11247;SDS011;5681;53.316;13.950;2023-02-13T12:21:55;8.40;;;7.20;;
11247;SDS011;5681;53.316;13.950;2023-02-13T12:24:34;10.03;;;7.60;;
11247;SDS011;5681;53.316;13.950;2023-02-13T12:27:11;8.37;;;7.47;;
11247;SDS011;5681;53.316;13.950;2023-02-13T12:29:54;7.03;;;6.30;;
11247;SDS011;5681;53.316;13.950;2023-02-13T12:32:30;8.63;;;7.57;;
11247;SDS011;5681;53.316;13.950;2023-02-13T12:35:11;8.25;;;6.78;;
11247;SDS011;5681;53.316;13.950;2023-02-13T12:37:54;7.37;;;6.50;;
11247;SDS011;5681;53.316;13.950;2023-02-13T12:43:26;7.87;;;6.73;;
11247;SDS011;5681;53.316;13.950;2023-02-13T12:46:01;7.07;;;6.37;;
11247;SDS011;5681;53.316;13.950;2023-02-13T12:48:33;8.07;;;6.60;;
11247;SDS011;5681;53.316;13.950;2023-02-13T12:51:10;7.50;;;6.10;;
11247;SDS011;5681;53.316;13.950;2023-02-13T12:53:47;8.67;;;6.57;;
11247;SDS011;5681;53.316;13.950;2023-02-13T12:56:27;7.60;;;6.40;;
11247;SDS011;5681;53.316;13.950;2023-02-13T12:59:00;7.03;;;6.00;;
11247;SDS011;5681;53.316;13.950;2023-02-13T13:01:47;9.25;;;6.45;;
11247;SDS011;5681;53.316;13.950;2023-02-13T13:04:21;7.33;;;6.53;;
11247;SDS011;5681;53.316;13.950;2023-02-13T13:06:57;9.27;;;6.50;;
11247;SDS011;5681;53.316;13.950;2023-02-13T13:09:40;8.57;;;6.30;;
11247;SDS011;5681;53.316;13.950;2023-02-13T13:12:22;6.57;;;5.97;;
11247;SDS011;5681;53.316;13.950;2023-02-13T13:14:53;7.37;;;5.77;;
11247;SDS011;5681;53.316;13.950;2023-02-13T13:17:25;10.17;;;6.63;;
11247;SDS011;5681;53.316;13.950;2023-02-13T13:19:59;8.03;;;6.53;;
11247;SDS011;5681;53.316;13.950;2023-02-13T13:22:48;9.20;;;6.80;;
11247;SDS011;5681;53.316;13.950;2023-02-13T13:25:18;8.77;;;6.68;;
11247;SDS011;5681;53.316;13.950;2023-02-13T13:27:49;9.98;;;6.90;;
11247;SDS011;5681;53.316;13.950;2023-02-13T13:30:19;8.57;;;6.38;;
11247;SDS011;5681;53.316;13.950;2023-02-13T13:32:47;8.87;;;6.93;;
11247;SDS011;5681;53.316;13.950;2023-02-13T13:35:16;8.33;;;6.93;;
11247;SDS011;5681;53.316;13.950;2023-02-13T13:37:45;8.90;;;6.50;;
11247;SDS011;5681;53.316;13.950;2023-02-13T13:40:28;7.17;;;6.20;;
11247;SDS011;5681;53.316;13.950;2023-02-13T13:43:01;8.95;;;6.43;;
11247;SDS011;5681;53.316;13.950;2023-02-13T13:45:33;8.47;;;6.70;;
11247;SDS011;5681;53.316;13.950;2023-02-13T13:48:17;8.30;;;6.70;;
11247;SDS011;5681;53.316;13.950;2023-02-13T13:50:55;10.57;;;6.80;;
11247;SDS011;5681;53.316;13.950;2023-02-13T13:53:21;8.77;;;6.93;;
11247;SDS011;5681;53.316;13.950;2023-02-13T13:55:59;8.18;;;7.38;;
11247;SDS011;5681;53.316;13.950;2023-02-13T13:58:41;11.38;;;6.72;;
11247;SDS011;5681;53.316;13.950;2023-02-13T14:01:15;8.95;;;7.75;;
11247;SDS011;5681;53.316;13.950;2023-02-13T14:03:43;8.15;;;7.30;;
11247;SDS011;5681;53.316;13.950;2023-02-13T14:06:11;8.73;;;7.82;;
11247;SDS011;5681;53.316;13.950;2023-02-13T14:08:51;7.72;;;6.90;;
11247;SDS011;5681;53.316;13.950;2023-02-13T14:11:27;10.48;;;8.05;;
11247;SDS011;5681;53.316;13.950;2023-02-13T14:14:00;11.55;;;7.93;;
11247;SDS011;5681;53.316;13.950;2023-02-13T14:16:35;10.63;;;7.25;;
11247;SDS011;5681;53.316;13.950;2023-02-13T14:19:03;8.07;;;6.60;;
11247;SDS011;5681;53.316;13.950;2023-02-13T14:21:30;8.10;;;7.05;;
11247;SDS011;5681;53.316;13.950;2023-02-13T14:23:56;10.60;;;6.90;;
11247;SDS011;5681;53.316;13.950;2023-02-13T14:26:31;8.70;;;7.78;;
11247;SDS011;5681;53.316;13.950;2023-02-13T14:34:48;10.37;;;8.00;;
11247;SDS011;5681;53.316;13.950;2023-02-13T14:37:18;13.03;;;7.53;;
11247;SDS011;5681;53.316;13.950;2023-02-13T14:40:08;8.20;;;7.13;;
11247;SDS011;5681;53.316;13.950;2023-02-13T14:42:53;8.77;;;7.10;;
11247;SDS011;5681;53.316;13.950;2023-02-13T14:45:21;11.63;;;8.33;;
11247;SDS011;5681;53.316;13.950;2023-02-13T14:47:53;9.90;;;8.30;;
11247;SDS011;5681;53.316;13.950;2023-02-13T14:50:21;9.80;;;7.43;;
11247;SDS011;5681;53.316;13.950;2023-02-13T14:52:49;7.97;;;6.87;;
11247;SDS011;5681;53.316;13.950;2023-02-13T14:55:19;9.38;;;7.18;;
11247;SDS011;5681;53.316;13.950;2023-02-13T14:57:58;10.17;;;8.43;;
11247;SDS011;5681;53.316;13.950;2023-02-13T15:00:31;13.32;;;9.35;;
11247;SDS011;5681;53.316;13.950;2023-02-13T15:03:06;11.63;;;9.32;;
11247;SDS011;5681;53.316;13.950;2023-02-13T15:05:39;10.17;;;8.00;;
11247;SDS011;5681;53.316;13.950;2023-02-13T15:08:06;9.82;;;7.93;;
11247;SDS011;5681;53.316;13.950;2023-02-13T15:10:35;8.93;;;7.68;;
11247;SDS011;5681;53.316;13.950;2023-02-13T15:13:11;14.83;;;8.47;;
11247;SDS011;5681;53.316;13.950;2023-02-13T15:15:39;8.67;;;7.60;;
11247;SDS011;5681;53.316;13.950;2023-02-13T15:18:08;9.17;;;7.83;;
11247;SDS011;5681;53.316;13.950;2023-02-13T15:20:37;13.20;;;8.00;;
11247;SDS011;5681;53.316;13.950;2023-02-13T15:23:06;8.97;;;7.43;;